Huvudsida
METAR-TAF:

METAR-TAF

Flygplatser :

Larnacas internationella flygplats

Larnaca, Cypern

latitud: 34-53N, longitud: 033-38E, höjd: 2 m

Aktuellt väderrapport

Denna rapport gjordes för 36 minuter sedan, klockan 09:30 UTC
Vind 6 kt från nordost
Temperatur 21°C
Fuktighet 64%
Tryck 1017 hPa
Sikt 10 km eller mer
Få moln på en höjd av 2000 ft

METAR: LCLK 200930Z 05006KT 9999 FEW020 21/14 Q1017 NOSIG

Tid: 12:06 (10:06 UTC)

Väderprognos

Denna rapport gjordes för 4 timmar och 36 minuter sedan, klockan 05:30 UTC
Prognos gäller från 20 kl. 06 UTC till 21 kl. 06 UTC
Vind 6 kt från nordväst
Sikt 10 km eller mer
Få moln på en höjd av 2000 ft
Blir
från 20 kl. 07 UTC till 20 kl. 11 UTC
Vind 10 kt från ost/nordost
Blir
från 20 kl. 15 UTC till 20 kl. 18 UTC
Vind 6 kt från väst/nordväst

TAF: LCLK 200530Z 2006/2106 31006KT 9999 FEW020 BECMG 2007/2011 06010KT BECMG 2015/2018 30006KT

Aktuella väderrapporter och prognoser från 4000 flygplatser (METAR- och TAF-rapporter).

De tillgängliga stationerna syns som gula och röda prickar på kartan.

För musen över prickarna för att se namnen på stationerna.

Klicka sedan för att få väderrapporter och prognoser.

För att ändra kartan: Klicka på de gröna knapparna med ett svart kors på för att zooma in; den gröna knappen med ett streck på för att zooma ut; eller på de gröna pilarna för angränsande kartor.


METAR-TAF: